Fort Benning, GA

4:52 AM EDT on August 02, 2014 (GMT -0400)
Auburn-opelika-pitts (KAUO) Elev 774 ft | 32.62 °N, 85.43 °W | Change Station

Current weather conditions updated 17 minutes ago

Clear
Clear
68 °F
Feels Like 68 °F
N
5
Wind Variable Wind from NE

Today is forecast to be Warmer than yesterday. Scattered thunderstorms.

Today
High -- | Low -- °F
--% Chance of Precip.
Yesterday
High -- | Low -- °F
Precip. -- in
6:54 AM 8:36 PM
Waxing Crescent, 34% visible
Pressure 30.06 in
Visibility 10.0 miles
Clouds Clear
Dew Point 63 °F
Humidity 83%
Rainfall 0.00 in
Snow Depth Not available.
UV 0 out of 12
Pollen 4.80 out of 12
Ozone Good
PM2.5 Good
Flu Activity Not available.
METAR KAUO 020835Z 04004KT 10SM CLR 20/17 A3006 RMK AO1

More Conditions Fewer Conditions

Pressure 30.06 in
Visibility 10.0 miles
Clouds Clear
Dew Point 63 °F
Humidity 83%
Rainfall 0.00 in
Snow Depth Not available.
UV 0 out of 12
Pollen 4.80 out of 12
Ozone Good
PM2.5 Good
Flu Activity Not available.
METAR KAUO 020835Z 04004KT 10SM CLR 20/17 A3006 RMK AO1

More Conditions Fewer Conditions

10-Day Weather Forecast

Almanac

Astronomy

Aug. 02, 2014 Rise Set
Actual Time 6:54 AM EDT 8:36 PM EDT
Civil Twilight 6:28 AM EDT 9:03 PM EDT
Nautical Twilight 5:55 AM EDT 9:35 PM EDT
Astronomical Twilight 5:22 AM EDT 10:09 PM EDT
Moon 12:51 PM EDT No Moon Set
Length of Visible Light 14h 35m
Length of Day
13h 41m
Tomorrow will be 1m 30s shorter.
Waxing Crescent, 34% of the Moon is Illuminated
Today
Waxing Crescent
Aug 3
First Quarter
Aug 10
Full
Aug 17
Last Quarter
Aug 25
New

Today's Extremes

State Highs State Lows

Community

WunderPhotos

Upload Photos

1,739,850 photos uploaded!

Nearby

Air Quality

  Air Quality AQ Index Pollutant
Yesterday Good
PM2.5
Yesterday Good
OZONE
Current Good
OZONE
Current Good
PM2.5
Saturday Good
PM2.5

Snow Depth

Station Depth Elevation
No new snow has been reported.

Earthquake Activity

City Distance Mag. Time & Date
No recent earthquake activity has been reported nearby.
Minimum magnitude displayed is 2.5.

Coastal Water Temperatures

Place Temperature
No Stations Reporting

Nearby Weather Stations

Station Location Temp. Dew Point Humidity Wind Precip. Elev Updated Type
Lincoln Hills, Columbus, GA 70.3 °F 68 °F 91% ENE  at  0.0 mph - / hr 433 ft 4:45 AM EDT Normal
Foxfire, Columbus, GA 70.6 °F 67 °F 88% SSE  at  0.0 mph 0.00 in / hr 436 ft 4:39 AM EDT Normal
Lakewood Heights, Phenix City, AL 70.8 °F 67 °F 88% SE  at  0.0 mph 0.00 in / hr 394 ft 3:51 AM CDT Normal
Smiths Station, AL 70.6 °F 66 °F 86% North  at  0.0 mph 0.00 in / hr 370 ft 4:50 AM EDT Normal
Fortson GA, Columbus, GA 69.8 °F 64 °F 83% South  at  0.0 mph 0.00 in / hr 528 ft 4:52 AM EDT Rapid Fire
Phenix City, Phenix City, AL 71.5 °F 67 °F 87% East  at  1.0 mph 0.00 in / hr 433 ft 3:50 AM CDT Normal
RoseParadiseFarm Hwy 36, Waverly Hall, GA 68.7 °F 65 °F 89% North  at  0.0 mph 0.00 in / hr 797 ft 4:52 AM EDT Rapid Fire

Show More Stations Show Fewer Stations